sensor_id;sensor_type;location;lat;lon;timestamp;P1;durP1;ratioP1;P2;durP2;ratioP2
58565;SDS011;47788;46.172;-1.158;2022-10-16T00:01:34;14.82;;;5.03;;
58565;SDS011;47788;46.172;-1.158;2022-10-16T00:04:00;13.77;;;4.35;;
58565;SDS011;47788;46.172;-1.158;2022-10-16T00:06:27;10.82;;;4.30;;
58565;SDS011;47788;46.172;-1.158;2022-10-16T00:08:53;12.32;;;4.55;;
58565;SDS011;47788;46.172;-1.158;2022-10-16T00:11:27;13.50;;;4.30;;
58565;SDS011;47788;46.172;-1.158;2022-10-16T00:13:55;18.42;;;4.47;;
58565;SDS011;47788;46.172;-1.158;2022-10-16T00:16:23;11.98;;;4.18;;
58565;SDS011;47788;46.172;-1.158;2022-10-16T00:18:49;14.35;;;3.75;;
58565;SDS011;47788;46.172;-1.158;2022-10-16T00:21:16;10.18;;;3.42;;
58565;SDS011;47788;46.172;-1.158;2022-10-16T00:23:43;13.32;;;3.00;;
58565;SDS011;47788;46.172;-1.158;2022-10-16T00:26:11;11.35;;;3.47;;
58565;SDS011;47788;46.172;-1.158;2022-10-16T00:28:39;10.32;;;4.43;;
58565;SDS011;47788;46.172;-1.158;2022-10-16T00:31:05;48.95;;;23.88;;
58565;SDS011;47788;46.172;-1.158;2022-10-16T00:33:33;64.38;;;33.03;;
58565;SDS011;47788;46.172;-1.158;2022-10-16T00:36:00;29.17;;;14.82;;
58565;SDS011;47788;46.172;-1.158;2022-10-16T00:38:27;18.80;;;10.15;;
58565;SDS011;47788;46.172;-1.158;2022-10-16T00:40:53;14.75;;;5.50;;
58565;SDS011;47788;46.172;-1.158;2022-10-16T00:46:10;8.90;;;2.08;;
58565;SDS011;47788;46.172;-1.158;2022-10-16T00:48:40;3.67;;;1.90;;
58565;SDS011;47788;46.172;-1.158;2022-10-16T00:51:10;5.00;;;1.20;;
58565;SDS011;47788;46.172;-1.158;2022-10-16T00:53:36;8.73;;;1.70;;
58565;SDS011;47788;46.172;-1.158;2022-10-16T00:56:02;5.05;;;1.00;;
58565;SDS011;47788;46.172;-1.158;2022-10-16T00:58:28;4.63;;;1.23;;
58565;SDS011;47788;46.172;-1.158;2022-10-16T01:00:53;3.30;;;1.00;;
58565;SDS011;47788;46.172;-1.158;2022-10-16T01:03:23;3.70;;;1.10;;
58565;SDS011;47788;46.172;-1.158;2022-10-16T01:05:59;2.30;;;1.20;;
58565;SDS011;47788;46.172;-1.158;2022-10-16T01:11:33;3.63;;;1.17;;
58565;SDS011;47788;46.172;-1.158;2022-10-16T01:14:08;3.63;;;1.10;;
58565;SDS011;47788;46.172;-1.158;2022-10-16T01:16:47;5.25;;;1.55;;
58565;SDS011;47788;46.172;-1.158;2022-10-16T01:21:44;2.63;;;1.30;;
58565;SDS011;47788;46.172;-1.158;2022-10-16T01:24:55;3.92;;;1.15;;
58565;SDS011;47788;46.172;-1.158;2022-10-16T01:27:25;2.97;;;1.20;;
58565;SDS011;47788;46.172;-1.158;2022-10-16T01:32:53;3.97;;;1.73;;
58565;SDS011;47788;46.172;-1.158;2022-10-16T01:35:34;4.15;;;1.60;;
58565;SDS011;47788;46.172;-1.158;2022-10-16T01:40:38;4.15;;;1.50;;
58565;SDS011;47788;46.172;-1.158;2022-10-16T01:43:08;3.78;;;1.75;;
58565;SDS011;47788;46.172;-1.158;2022-10-16T01:45:37;5.78;;;1.77;;
58565;SDS011;47788;46.172;-1.158;2022-10-16T01:48:04;4.00;;;1.70;;
58565;SDS011;47788;46.172;-1.158;2022-10-16T01:50:33;2.65;;;1.70;;
58565;SDS011;47788;46.172;-1.158;2022-10-16T01:53:02;4.78;;;1.98;;
58565;SDS011;47788;46.172;-1.158;2022-10-16T01:55:30;5.18;;;2.00;;
58565;SDS011;47788;46.172;-1.158;2022-10-16T01:58:00;3.70;;;1.90;;
58565;SDS011;47788;46.172;-1.158;2022-10-16T02:00:29;4.10;;;2.00;;
58565;SDS011;47788;46.172;-1.158;2022-10-16T02:02:56;3.60;;;2.13;;
58565;SDS011;47788;46.172;-1.158;2022-10-16T02:05:28;6.40;;;2.40;;
58565;SDS011;47788;46.172;-1.158;2022-10-16T02:07:59;3.08;;;2.03;;
58565;SDS011;47788;46.172;-1.158;2022-10-16T02:10:25;3.95;;;2.10;;
58565;SDS011;47788;46.172;-1.158;2022-10-16T02:13:17;4.72;;;2.30;;
58565;SDS011;47788;46.172;-1.158;2022-10-16T02:15:47;6.45;;;2.53;;
58565;SDS011;47788;46.172;-1.158;2022-10-16T02:18:13;8.25;;;2.50;;
58565;SDS011;47788;46.172;-1.158;2022-10-16T02:20:44;3.08;;;2.22;;
58565;SDS011;47788;46.172;-1.158;2022-10-16T02:23:19;8.77;;;2.60;;
58565;SDS011;47788;46.172;-1.158;2022-10-16T02:25:52;4.10;;;2.45;;
58565;SDS011;47788;46.172;-1.158;2022-10-16T02:28:26;3.97;;;2.58;;
58565;SDS011;47788;46.172;-1.158;2022-10-16T02:30:57;3.47;;;2.65;;
58565;SDS011;47788;46.172;-1.158;2022-10-16T02:33:26;4.80;;;3.13;;
58565;SDS011;47788;46.172;-1.158;2022-10-16T02:35:54;4.88;;;3.10;;
58565;SDS011;47788;46.172;-1.158;2022-10-16T02:38:21;5.88;;;2.80;;
58565;SDS011;47788;46.172;-1.158;2022-10-16T02:40:48;4.03;;;3.00;;
58565;SDS011;47788;46.172;-1.158;2022-10-16T02:43:14;6.07;;;3.38;;
58565;SDS011;47788;46.172;-1.158;2022-10-16T02:45:40;7.32;;;3.20;;
58565;SDS011;47788;46.172;-1.158;2022-10-16T02:48:05;4.50;;;2.80;;
58565;SDS011;47788;46.172;-1.158;2022-10-16T02:50:31;5.07;;;2.88;;
58565;SDS011;47788;46.172;-1.158;2022-10-16T02:52:57;3.65;;;2.80;;
58565;SDS011;47788;46.172;-1.158;2022-10-16T02:55:23;5.97;;;3.58;;
58565;SDS011;47788;46.172;-1.158;2022-10-16T02:57:48;6.50;;;3.65;;
58565;SDS011;47788;46.172;-1.158;2022-10-16T03:00:14;8.02;;;4.53;;
58565;SDS011;47788;46.172;-1.158;2022-10-16T03:02:41;10.13;;;4.70;;
58565;SDS011;47788;46.172;-1.158;2022-10-16T03:05:07;7.95;;;4.57;;
58565;SDS011;47788;46.172;-1.158;2022-10-16T03:07:33;7.28;;;4.68;;
58565;SDS011;47788;46.172;-1.158;2022-10-16T03:09:59;7.03;;;4.78;;
58565;SDS011;47788;46.172;-1.158;2022-10-16T03:12:25;5.97;;;4.40;;
58565;SDS011;47788;46.172;-1.158;2022-10-16T03:14:51;9.45;;;4.50;;
58565;SDS011;47788;46.172;-1.158;2022-10-16T03:17:17;9.43;;;5.72;;
58565;SDS011;47788;46.172;-1.158;2022-10-16T03:19:43;6.32;;;4.75;;
58565;SDS011;47788;46.172;-1.158;2022-10-16T03:22:09;8.27;;;4.78;;
58565;SDS011;47788;46.172;-1.158;2022-10-16T03:24:35;7.82;;;4.28;;
58565;SDS011;47788;46.172;-1.158;2022-10-16T03:27:00;7.68;;;4.65;;
58565;SDS011;47788;46.172;-1.158;2022-10-16T03:29:29;7.82;;;4.72;;
58565;SDS011;47788;46.172;-1.158;2022-10-16T03:31:55;7.47;;;5.00;;
58565;SDS011;47788;46.172;-1.158;2022-10-16T03:34:21;10.13;;;4.90;;
58565;SDS011;47788;46.172;-1.158;2022-10-16T03:36:47;8.55;;;5.38;;
58565;SDS011;47788;46.172;-1.158;2022-10-16T03:39:13;7.35;;;5.60;;
58565;SDS011;47788;46.172;-1.158;2022-10-16T03:41:38;7.18;;;5.22;;
58565;SDS011;47788;46.172;-1.158;2022-10-16T03:44:04;8.48;;;5.13;;
58565;SDS011;47788;46.172;-1.158;2022-10-16T03:46:30;11.05;;;6.53;;
58565;SDS011;47788;46.172;-1.158;2022-10-16T03:48:56;14.30;;;8.35;;
58565;SDS011;47788;46.172;-1.158;2022-10-16T03:51:22;31.67;;;15.25;;
58565;SDS011;47788;46.172;-1.158;2022-10-16T03:53:47;35.30;;;18.48;;
58565;SDS011;47788;46.172;-1.158;2022-10-16T03:56:13;49.85;;;23.85;;
58565;SDS011;47788;46.172;-1.158;2022-10-16T03:58:39;43.20;;;23.35;;
58565;SDS011;47788;46.172;-1.158;2022-10-16T04:01:04;47.38;;;24.10;;
58565;SDS011;47788;46.172;-1.158;2022-10-16T04:03:30;40.95;;;22.80;;
58565;SDS011;47788;46.172;-1.158;2022-10-16T04:05:56;43.17;;;23.60;;
58565;SDS011;47788;46.172;-1.158;2022-10-16T04:08:21;41.53;;;22.15;;
58565;SDS011;47788;46.172;-1.158;2022-10-16T04:10:47;39.63;;;22.48;;
58565;SDS011;47788;46.172;-1.158;2022-10-16T04:13:14;40.42;;;21.88;;
58565;SDS011;47788;46.172;-1.158;2022-10-16T04:15:40;35.50;;;20.00;;
58565;SDS011;47788;46.172;-1.158;2022-10-16T04:18:05;35.47;;;20.52;;
58565;SDS011;47788;46.172;-1.158;2022-10-16T04:20:31;34.50;;;18.80;;
58565;SDS011;47788;46.172;-1.158;2022-10-16T04:22:58;32.05;;;18.80;;
58565;SDS011;47788;46.172;-1.158;2022-10-16T04:25:23;30.23;;;17.15;;
58565;SDS011;47788;46.172;-1.158;2022-10-16T04:27:49;31.42;;;17.05;;
58565;SDS011;47788;46.172;-1.158;2022-10-16T04:30:15;29.98;;;16.88;;
58565;SDS011;47788;46.172;-1.158;2022-10-16T04:32:40;29.67;;;16.92;;
58565;SDS011;47788;46.172;-1.158;2022-10-16T04:35:06;28.83;;;14.38;;
58565;SDS011;47788;46.172;-1.158;2022-10-16T04:37:32;27.35;;;15.07;;
58565;SDS011;47788;46.172;-1.158;2022-10-16T04:39:58;26.67;;;15.13;;
58565;SDS011;47788;46.172;-1.158;2022-10-16T04:42:23;24.58;;;13.38;;
58565;SDS011;47788;46.172;-1.158;2022-10-16T04:44:49;26.38;;;13.95;;
58565;SDS011;47788;46.172;-1.158;2022-10-16T04:47:15;25.95;;;15.18;;
58565;SDS011;47788;46.172;-1.158;2022-10-16T04:49:40;21.75;;;13.27;;
58565;SDS011;47788;46.172;-1.158;2022-10-16T04:52:06;25.52;;;13.45;;
58565;SDS011;47788;46.172;-1.158;2022-10-16T04:54:33;21.83;;;12.57;;
58565;SDS011;47788;46.172;-1.158;2022-10-16T04:56:59;18.25;;;11.18;;
58565;SDS011;47788;46.172;-1.158;2022-10-16T04:59:24;17.95;;;10.90;;
58565;SDS011;47788;46.172;-1.158;2022-10-16T05:01:50;15.05;;;9.45;;
58565;SDS011;47788;46.172;-1.158;2022-10-16T05:04:16;15.88;;;10.25;;
58565;SDS011;47788;46.172;-1.158;2022-10-16T05:06:41;14.18;;;10.82;;
58565;SDS011;47788;46.172;-1.158;2022-10-16T05:09:07;15.25;;;10.45;;
58565;SDS011;47788;46.172;-1.158;2022-10-16T05:11:34;13.77;;;9.68;;
58565;SDS011;47788;46.172;-1.158;2022-10-16T05:14:00;14.40;;;9.30;;
58565;SDS011;47788;46.172;-1.158;2022-10-16T05:16:26;12.95;;;9.57;;
58565;SDS011;47788;46.172;-1.158;2022-10-16T05:18:52;12.90;;;9.00;;
58565;SDS011;47788;46.172;-1.158;2022-10-16T05:21:19;13.50;;;9.30;;
58565;SDS011;47788;46.172;-1.158;2022-10-16T05:23:45;12.27;;;9.15;;
58565;SDS011;47788;46.172;-1.158;2022-10-16T05:26:11;15.30;;;9.95;;
58565;SDS011;47788;46.172;-1.158;2022-10-16T05:28:36;14.68;;;9.00;;
58565;SDS011;47788;46.172;-1.158;2022-10-16T05:31:05;10.40;;;8.90;;
58565;SDS011;47788;46.172;-1.158;2022-10-16T05:33:32;12.75;;;7.93;;
58565;SDS011;47788;46.172;-1.158;2022-10-16T05:36:02;10.77;;;8.10;;
58565;SDS011;47788;46.172;-1.158;2022-10-16T05:38:29;8.43;;;7.45;;
58565;SDS011;47788;46.172;-1.158;2022-10-16T05:40:54;12.25;;;8.32;;
58565;SDS011;47788;46.172;-1.158;2022-10-16T05:43:21;11.30;;;7.50;;
58565;SDS011;47788;46.172;-1.158;2022-10-16T05:45:56;10.18;;;7.88;;
58565;SDS011;47788;46.172;-1.158;2022-10-16T05:48:24;10.40;;;7.47;;
58565;SDS011;47788;46.172;-1.158;2022-10-16T05:50:59;8.52;;;7.25;;
58565;SDS011;47788;46.172;-1.158;2022-10-16T05:53:30;8.18;;;6.47;;
58565;SDS011;47788;46.172;-1.158;2022-10-16T05:55:57;8.75;;;7.10;;
58565;SDS011;47788;46.172;-1.158;2022-10-16T05:58:24;7.78;;;6.97;;
58565;SDS011;47788;46.172;-1.158;2022-10-16T06:03:49;8.68;;;7.07;;
58565;SDS011;47788;46.172;-1.158;2022-10-16T06:06:19;9.23;;;7.35;;
58565;SDS011;47788;46.172;-1.158;2022-10-16T06:08:47;10.30;;;7.10;;
58565;SDS011;47788;46.172;-1.158;2022-10-16T06:11:16;11.35;;;7.45;;
58565;SDS011;47788;46.172;-1.158;2022-10-16T06:13:43;10.02;;;7.43;;
58565;SDS011;47788;46.172;-1.158;2022-10-16T06:16:11;7.18;;;6.20;;
58565;SDS011;47788;46.172;-1.158;2022-10-16T06:18:37;7.68;;;6.80;;
58565;SDS011;47788;46.172;-1.158;2022-10-16T06:21:23;8.95;;;7.38;;
58565;SDS011;47788;46.172;-1.158;2022-10-16T06:23:50;9.70;;;7.55;;
58565;SDS011;47788;46.172;-1.158;2022-10-16T06:26:17;9.10;;;7.20;;
58565;SDS011;47788;46.172;-1.158;2022-10-16T06:28:44;9.32;;;7.57;;
58565;SDS011;47788;46.172;-1.158;2022-10-16T06:31:10;9.18;;;7.95;;
58565;SDS011;47788;46.172;-1.158;2022-10-16T06:33:38;9.40;;;7.55;;
58565;SDS011;47788;46.172;-1.158;2022-10-16T06:36:08;8.70;;;7.47;;
58565;SDS011;47788;46.172;-1.158;2022-10-16T06:38:37;8.90;;;7.50;;
58565;SDS011;47788;46.172;-1.158;2022-10-16T06:41:03;8.82;;;7.88;;
58565;SDS011;47788;46.172;-1.158;2022-10-16T06:43:30;8.45;;;7.55;;
58565;SDS011;47788;46.172;-1.158;2022-10-16T06:46:03;10.18;;;8.35;;
58565;SDS011;47788;46.172;-1.158;2022-10-16T06:48:30;10.02;;;7.57;;
58565;SDS011;47788;46.172;-1.158;2022-10-16T06:51:00;11.65;;;7.40;;
58565;SDS011;47788;46.172;-1.158;2022-10-16T06:53:28;9.70;;;8.18;;
58565;SDS011;47788;46.172;-1.158;2022-10-16T06:55:55;11.88;;;8.55;;
58565;SDS011;47788;46.172;-1.158;2022-10-16T06:58:21;10.63;;;8.20;;
58565;SDS011;47788;46.172;-1.158;2022-10-16T07:00:48;13.60;;;9.13;;
58565;SDS011;47788;46.172;-1.158;2022-10-16T07:03:13;11.32;;;9.00;;
58565;SDS011;47788;46.172;-1.158;2022-10-16T07:05:40;10.75;;;8.68;;
58565;SDS011;47788;46.172;-1.158;2022-10-16T07:08:07;10.10;;;7.45;;
58565;SDS011;47788;46.172;-1.158;2022-10-16T07:10:33;9.68;;;8.20;;
58565;SDS011;47788;46.172;-1.158;2022-10-16T07:12:59;10.45;;;7.78;;
58565;SDS011;47788;46.172;-1.158;2022-10-16T07:15:25;10.15;;;8.50;;
58565;SDS011;47788;46.172;-1.158;2022-10-16T07:17:51;11.73;;;9.45;;
58565;SDS011;47788;46.172;-1.158;2022-10-16T07:20:17;9.82;;;8.00;;
58565;SDS011;47788;46.172;-1.158;2022-10-16T07:22:43;8.45;;;7.43;;
58565;SDS011;47788;46.172;-1.158;2022-10-16T07:25:08;8.70;;;7.30;;
58565;SDS011;47788;46.172;-1.158;2022-10-16T07:27:34;10.52;;;7.60;;
58565;SDS011;47788;46.172;-1.158;2022-10-16T07:30:00;8.57;;;7.72;;
58565;SDS011;47788;46.172;-1.158;2022-10-16T07:32:26;8.32;;;6.85;;
58565;SDS011;47788;46.172;-1.158;2022-10-16T07:34:52;9.00;;;7.45;;
58565;SDS011;47788;46.172;-1.158;2022-10-16T07:37:17;8.15;;;7.28;;
58565;SDS011;47788;46.172;-1.158;2022-10-16T07:39:43;8.45;;;7.00;;
58565;SDS011;47788;46.172;-1.158;2022-10-16T07:42:09;8.23;;;6.63;;
58565;SDS011;47788;46.172;-1.158;2022-10-16T07:44:34;9.63;;;6.35;;
58565;SDS011;47788;46.172;-1.158;2022-10-16T07:47:00;9.13;;;6.57;;
58565;SDS011;47788;46.172;-1.158;2022-10-16T07:49:26;9.10;;;7.72;;
58565;SDS011;47788;46.172;-1.158;2022-10-16T07:51:51;7.50;;;6.80;;
58565;SDS011;47788;46.172;-1.158;2022-10-16T07:54:17;8.00;;;6.32;;
58565;SDS011;47788;46.172;-1.158;2022-10-16T07:56:42;12.90;;;6.50;;
58565;SDS011;47788;46.172;-1.158;2022-10-16T07:59:08;9.77;;;7.03;;
58565;SDS011;47788;46.172;-1.158;2022-10-16T08:01:34;10.65;;;6.90;;
58565;SDS011;47788;46.172;-1.158;2022-10-16T08:03:59;7.93;;;6.20;;
58565;SDS011;47788;46.172;-1.158;2022-10-16T08:06:25;8.73;;;6.45;;
58565;SDS011;47788;46.172;-1.158;2022-10-16T08:08:51;7.25;;;6.32;;
58565;SDS011;47788;46.172;-1.158;2022-10-16T08:11:17;8.40;;;5.85;;
58565;SDS011;47788;46.172;-1.158;2022-10-16T08:13:42;6.82;;;5.72;;
58565;SDS011;47788;46.172;-1.158;2022-10-16T08:16:08;6.82;;;5.45;;
58565;SDS011;47788;46.172;-1.158;2022-10-16T08:18:38;6.35;;;5.50;;
58565;SDS011;47788;46.172;-1.158;2022-10-16T08:21:04;8.18;;;5.72;;
58565;SDS011;47788;46.172;-1.158;2022-10-16T08:23:31;8.48;;;5.82;;
58565;SDS011;47788;46.172;-1.158;2022-10-16T08:26:01;6.80;;;5.28;;
58565;SDS011;47788;46.172;-1.158;2022-10-16T08:28:29;7.35;;;5.50;;
58565;SDS011;47788;46.172;-1.158;2022-10-16T08:30:54;7.13;;;5.22;;
58565;SDS011;47788;46.172;-1.158;2022-10-16T08:33:21;5.85;;;5.05;;
58565;SDS011;47788;46.172;-1.158;2022-10-16T08:35:51;8.50;;;5.32;;
58565;SDS011;47788;46.172;-1.158;2022-10-16T08:38:18;9.82;;;6.18;;
58565;SDS011;47788;46.172;-1.158;2022-10-16T08:40:44;8.60;;;5.93;;
58565;SDS011;47788;46.172;-1.158;2022-10-16T08:45:59;6.35;;;4.50;;
58565;SDS011;47788;46.172;-1.158;2022-10-16T08:48:46;9.45;;;4.85;;
58565;SDS011;47788;46.172;-1.158;2022-10-16T08:51:37;8.23;;;4.28;;
58565;SDS011;47788;46.172;-1.158;2022-10-16T08:54:03;7.55;;;4.18;;
58565;SDS011;47788;46.172;-1.158;2022-10-16T08:56:30;6.20;;;4.10;;
58565;SDS011;47788;46.172;-1.158;2022-10-16T08:58:58;7.45;;;3.70;;
58565;SDS011;47788;46.172;-1.158;2022-10-16T09:01:25;4.20;;;3.13;;
58565;SDS011;47788;46.172;-1.158;2022-10-16T09:04:34;5.03;;;2.97;;
58565;SDS011;47788;46.172;-1.158;2022-10-16T09:07:28;5.60;;;3.17;;
58565;SDS011;47788;46.172;-1.158;2022-10-16T09:18:43;3.92;;;2.15;;
58565;SDS011;47788;46.172;-1.158;2022-10-16T09:21:16;4.53;;;1.85;;
58565;SDS011;47788;46.172;-1.158;2022-10-16T09:23:46;4.90;;;2.13;;
58565;SDS011;47788;46.172;-1.158;2022-10-16T09:26:13;2.67;;;1.70;;
58565;SDS011;47788;46.172;-1.158;2022-10-16T09:28:41;4.03;;;1.90;;
58565;SDS011;47788;46.172;-1.158;2022-10-16T09:31:19;5.55;;;2.03;;
58565;SDS011;47788;46.172;-1.158;2022-10-16T09:33:48;4.10;;;1.98;;
58565;SDS011;47788;46.172;-1.158;2022-10-16T09:36:18;4.75;;;1.83;;
58565;SDS011;47788;46.172;-1.158;2022-10-16T09:38:45;5.70;;;2.40;;
58565;SDS011;47788;46.172;-1.158;2022-10-16T09:41:15;2.90;;;2.15;;
58565;SDS011;47788;46.172;-1.158;2022-10-16T09:43:47;5.07;;;1.90;;
58565;SDS011;47788;46.172;-1.158;2022-10-16T09:48:55;2.90;;;2.22;;
58565;SDS011;47788;46.172;-1.158;2022-10-16T09:51:24;4.43;;;2.15;;
58565;SDS011;47788;46.172;-1.158;2022-10-16T09:53:56;3.15;;;2.00;;
58565;SDS011;47788;46.172;-1.158;2022-10-16T09:56:28;3.85;;;2.17;;
58565;SDS011;47788;46.172;-1.158;2022-10-16T10:01:29;5.63;;;2.60;;
58565;SDS011;47788;46.172;-1.158;2022-10-16T10:04:00;5.30;;;2.92;;
58565;SDS011;47788;46.172;-1.158;2022-10-16T10:06:31;4.50;;;2.90;;
58565;SDS011;47788;46.172;-1.158;2022-10-16T10:11:40;7.38;;;3.70;;
58565;SDS011;47788;46.172;-1.158;2022-10-16T10:14:37;6.05;;;3.58;;
58565;SDS011;47788;46.172;-1.158;2022-10-16T10:22:47;7.53;;;3.85;;
58565;SDS011;47788;46.172;-1.158;2022-10-16T10:33:08;8.90;;;5.22;;
58565;SDS011;47788;46.172;-1.158;2022-10-16T10:38:47;7.95;;;4.85;;
58565;SDS011;47788;46.172;-1.158;2022-10-16T10:50:33;8.75;;;4.88;;
58565;SDS011;47788;46.172;-1.158;2022-10-16T10:55:49;9.95;;;5.18;;
58565;SDS011;47788;46.172;-1.158;2022-10-16T11:01:22;6.03;;;4.82;;
58565;SDS011;47788;46.172;-1.158;2022-10-16T11:04:27;7.65;;;5.20;;
58565;SDS011;47788;46.172;-1.158;2022-10-16T11:06:57;9.35;;;4.93;;
58565;SDS011;47788;46.172;-1.158;2022-10-16T11:09:34;8.57;;;5.25;;
58565;SDS011;47788;46.172;-1.158;2022-10-16T11:12:07;7.22;;;5.30;;
58565;SDS011;47788;46.172;-1.158;2022-10-16T11:14:53;8.90;;;4.97;;
58565;SDS011;47788;46.172;-1.158;2022-10-16T11:20:05;12.75;;;5.95;;
58565;SDS011;47788;46.172;-1.158;2022-10-16T11:22:54;8.45;;;5.03;;
58565;SDS011;47788;46.172;-1.158;2022-10-16T11:25:31;10.00;;;5.28;;
58565;SDS011;47788;46.172;-1.158;2022-10-16T11:28:02;7.03;;;4.70;;
58565;SDS011;47788;46.172;-1.158;2022-10-16T11:30:33;6.85;;;4.82;;
58565;SDS011;47788;46.172;-1.158;2022-10-16T11:39:30;8.82;;;5.20;;
58565;SDS011;47788;46.172;-1.158;2022-10-16T11:42:10;5.45;;;4.78;;
58565;SDS011;47788;46.172;-1.158;2022-10-16T11:50:17;6.28;;;5.07;;
58565;SDS011;47788;46.172;-1.158;2022-10-16T11:52:53;11.65;;;5.20;;
58565;SDS011;47788;46.172;-1.158;2022-10-16T11:55:22;7.90;;;4.88;;
58565;SDS011;47788;46.172;-1.158;2022-10-16T11:58:00;8.45;;;4.70;;
58565;SDS011;47788;46.172;-1.158;2022-10-16T12:00:47;10.00;;;4.93;;
58565;SDS011;47788;46.172;-1.158;2022-10-16T12:08:56;8.05;;;4.70;;
58565;SDS011;47788;46.172;-1.158;2022-10-16T12:14:03;6.00;;;4.30;;
58565;SDS011;47788;46.172;-1.158;2022-10-16T12:16:29;8.60;;;4.50;;
58565;SDS011;47788;46.172;-1.158;2022-10-16T12:19:12;5.90;;;4.30;;
58565;SDS011;47788;46.172;-1.158;2022-10-16T12:21:40;6.60;;;3.85;;
58565;SDS011;47788;46.172;-1.158;2022-10-16T12:24:18;8.05;;;4.63;;
58565;SDS011;47788;46.172;-1.158;2022-10-16T12:26:56;6.82;;;4.35;;
58565;SDS011;47788;46.172;-1.158;2022-10-16T12:31:57;8.80;;;4.47;;
58565;SDS011;47788;46.172;-1.158;2022-10-16T12:34:29;7.57;;;4.10;;
58565;SDS011;47788;46.172;-1.158;2022-10-16T12:37:18;5.63;;;4.25;;
58565;SDS011;47788;46.172;-1.158;2022-10-16T12:39:48;10.27;;;4.38;;
58565;SDS011;47788;46.172;-1.158;2022-10-16T12:42:22;7.30;;;3.97;;
58565;SDS011;47788;46.172;-1.158;2022-10-16T12:44:51;6.78;;;3.95;;
58565;SDS011;47788;46.172;-1.158;2022-10-16T12:47:52;6.80;;;3.70;;
58565;SDS011;47788;46.172;-1.158;2022-10-16T12:52:53;10.23;;;3.80;;
58565;SDS011;47788;46.172;-1.158;2022-10-16T12:55:19;5.75;;;3.30;;
58565;SDS011;47788;46.172;-1.158;2022-10-16T13:03:23;6.25;;;2.70;;
58565;SDS011;47788;46.172;-1.158;2022-10-16T13:14:35;5.13;;;3.28;;
58565;SDS011;47788;46.172;-1.158;2022-10-16T13:19:46;5.95;;;3.10;;
58565;SDS011;47788;46.172;-1.158;2022-10-16T13:28:00;7.78;;;3.47;;
58565;SDS011;47788;46.172;-1.158;2022-10-16T13:33:06;7.97;;;4.03;;
58565;SDS011;47788;46.172;-1.158;2022-10-16T13:35:45;8.07;;;3.47;;
58565;SDS011;47788;46.172;-1.158;2022-10-16T13:38:13;8.27;;;4.03;;
58565;SDS011;47788;46.172;-1.158;2022-10-16T13:43:44;11.02;;;4.20;;
58565;SDS011;47788;46.172;-1.158;2022-10-16T13:46:15;10.27;;;4.03;;
58565;SDS011;47788;46.172;-1.158;2022-10-16T13:48:55;11.63;;;4.40;;
58565;SDS011;47788;46.172;-1.158;2022-10-16T13:51:27;16.02;;;4.65;;
58565;SDS011;47788;46.172;-1.158;2022-10-16T13:53:54;20.05;;;5.03;;
58565;SDS011;47788;46.172;-1.158;2022-10-16T13:56:22;17.50;;;4.22;;
58565;SDS011;47788;46.172;-1.158;2022-10-16T13:59:02;12.43;;;4.55;;
58565;SDS011;47788;46.172;-1.158;2022-10-16T14:01:33;13.98;;;4.82;;
58565;SDS011;47788;46.172;-1.158;2022-10-16T14:04:05;18.05;;;5.30;;
58565;SDS011;47788;46.172;-1.158;2022-10-16T14:06:34;11.85;;;4.63;;
58565;SDS011;47788;46.172;-1.158;2022-10-16T14:09:07;17.40;;;5.05;;
58565;SDS011;47788;46.172;-1.158;2022-10-16T14:11:52;13.93;;;4.88;;
58565;SDS011;47788;46.172;-1.158;2022-10-16T14:14:24;13.57;;;5.32;;
58565;SDS011;47788;46.172;-1.158;2022-10-16T14:16:52;15.68;;;5.97;;
58565;SDS011;47788;46.172;-1.158;2022-10-16T14:19:19;19.45;;;6.25;;
58565;SDS011;47788;46.172;-1.158;2022-10-16T14:21:48;22.88;;;5.90;;
58565;SDS011;47788;46.172;-1.158;2022-10-16T14:24:32;17.13;;;5.75;;
58565;SDS011;47788;46.172;-1.158;2022-10-16T14:26:59;25.58;;;6.22;;
58565;SDS011;47788;46.172;-1.158;2022-10-16T14:29:26;19.65;;;5.65;;
58565;SDS011;47788;46.172;-1.158;2022-10-16T14:32:03;19.75;;;5.10;;
58565;SDS011;47788;46.172;-1.158;2022-10-16T14:34:33;18.67;;;5.43;;
58565;SDS011;47788;46.172;-1.158;2022-10-16T14:37:05;12.82;;;5.10;;
58565;SDS011;47788;46.172;-1.158;2022-10-16T14:39:39;14.85;;;4.82;;
58565;SDS011;47788;46.172;-1.158;2022-10-16T14:42:11;13.00;;;4.35;;
58565;SDS011;47788;46.172;-1.158;2022-10-16T14:47:09;12.30;;;4.55;;
58565;SDS011;47788;46.172;-1.158;2022-10-16T14:49:42;16.67;;;4.70;;
58565;SDS011;47788;46.172;-1.158;2022-10-16T14:52:11;12.23;;;4.22;;
58565;SDS011;47788;46.172;-1.158;2022-10-16T14:54:37;11.93;;;4.47;;
58565;SDS011;47788;46.172;-1.158;2022-10-16T14:57:03;13.80;;;4.60;;
58565;SDS011;47788;46.172;-1.158;2022-10-16T14:59:33;15.15;;;5.10;;
58565;SDS011;47788;46.172;-1.158;2022-10-16T15:05:10;12.13;;;4.30;;
58565;SDS011;47788;46.172;-1.158;2022-10-16T15:07:38;14.25;;;4.57;;
58565;SDS011;47788;46.172;-1.158;2022-10-16T15:10:03;23.17;;;5.82;;
58565;SDS011;47788;46.172;-1.158;2022-10-16T15:12:29;15.55;;;4.40;;
58565;SDS011;47788;46.172;-1.158;2022-10-16T15:14:55;15.70;;;4.68;;
58565;SDS011;47788;46.172;-1.158;2022-10-16T15:17:21;17.35;;;5.22;;
58565;SDS011;47788;46.172;-1.158;2022-10-16T15:19:46;11.95;;;4.72;;
58565;SDS011;47788;46.172;-1.158;2022-10-16T15:22:12;13.70;;;4.57;;
58565;SDS011;47788;46.172;-1.158;2022-10-16T15:24:37;14.07;;;4.88;;
58565;SDS011;47788;46.172;-1.158;2022-10-16T15:27:03;16.27;;;4.18;;
58565;SDS011;47788;46.172;-1.158;2022-10-16T15:29:29;17.30;;;4.95;;
58565;SDS011;47788;46.172;-1.158;2022-10-16T15:31:54;13.48;;;4.97;;
58565;SDS011;47788;46.172;-1.158;2022-10-16T15:34:20;11.50;;;4.75;;
58565;SDS011;47788;46.172;-1.158;2022-10-16T15:36:46;10.07;;;4.38;;
58565;SDS011;47788;46.172;-1.158;2022-10-16T15:39:13;11.00;;;4.32;;
58565;SDS011;47788;46.172;-1.158;2022-10-16T15:41:41;15.82;;;4.20;;
58565;SDS011;47788;46.172;-1.158;2022-10-16T15:44:07;15.25;;;4.57;;
58565;SDS011;47788;46.172;-1.158;2022-10-16T15:46:32;11.65;;;4.20;;
58565;SDS011;47788;46.172;-1.158;2022-10-16T15:48:59;10.45;;;4.05;;
58565;SDS011;47788;46.172;-1.158;2022-10-16T15:51:25;16.45;;;4.47;;
58565;SDS011;47788;46.172;-1.158;2022-10-16T15:53:58;13.27;;;4.07;;
58565;SDS011;47788;46.172;-1.158;2022-10-16T15:56:26;14.48;;;4.50;;
58565;SDS011;47788;46.172;-1.158;2022-10-16T15:58:53;13.90;;;4.53;;
58565;SDS011;47788;46.172;-1.158;2022-10-16T16:01:19;16.98;;;4.57;;
58565;SDS011;47788;46.172;-1.158;2022-10-16T16:03:46;20.70;;;4.35;;
58565;SDS011;47788;46.172;-1.158;2022-10-16T16:06:12;15.40;;;4.45;;
58565;SDS011;47788;46.172;-1.158;2022-10-16T16:08:38;16.50;;;4.93;;
58565;SDS011;47788;46.172;-1.158;2022-10-16T16:11:08;10.02;;;3.72;;
58565;SDS011;47788;46.172;-1.158;2022-10-16T16:13:35;11.30;;;3.78;;
58565;SDS011;47788;46.172;-1.158;2022-10-16T16:16:12;15.23;;;4.63;;
58565;SDS011;47788;46.172;-1.158;2022-10-16T16:18:40;14.25;;;4.38;;
58565;SDS011;47788;46.172;-1.158;2022-10-16T16:21:06;10.50;;;4.32;;
58565;SDS011;47788;46.172;-1.158;2022-10-16T16:23:34;9.82;;;3.85;;
58565;SDS011;47788;46.172;-1.158;2022-10-16T16:26:06;14.85;;;3.88;;
58565;SDS011;47788;46.172;-1.158;2022-10-16T16:28:34;10.75;;;3.80;;
58565;SDS011;47788;46.172;-1.158;2022-10-16T16:31:00;12.38;;;4.38;;
58565;SDS011;47788;46.172;-1.158;2022-10-16T16:33:26;13.95;;;4.30;;
58565;SDS011;47788;46.172;-1.158;2022-10-16T16:35:55;16.55;;;4.00;;
58565;SDS011;47788;46.172;-1.158;2022-10-16T16:38:25;12.05;;;3.38;;
58565;SDS011;47788;46.172;-1.158;2022-10-16T16:40:51;14.07;;;4.40;;
58565;SDS011;47788;46.172;-1.158;2022-10-16T16:43:17;18.08;;;5.30;;
58565;SDS011;47788;46.172;-1.158;2022-10-16T16:45:43;17.15;;;4.78;;
58565;SDS011;47788;46.172;-1.158;2022-10-16T16:48:08;15.50;;;4.65;;